Espaço - Ciências - Fenômenos Naturais
Meteógrafos Informações Meteorológicas em tempo real

Aeroporto Leite Lopes

Histórico do Tempo
Temperatura atual: 15 graus 59 F    Umidade relativa: 93 %
Velocidade do vento: 01 nós 1 Km/h    Direção: 040 graus NE
Ajuste do altímetro ..: 1014 HPA
Visibilidade: Ótima    Tempo presente: Céu Limpo

Observação

Data Hora BRTTempo°CUmidadePressãoVentoVisib.
24/05 - 07:56   Céu Limpo 15° 93% 1014 Nordeste/1 km/h OK
24/05 - 06:56   Céu Limpo 16° 87% 1014 Norte/0 km/h OK
24/05 - 05:56   Céu Limpo 15° 93% 1013 Norte/0 km/h OK
24/05 - 04:56   Céu Limpo 16° 87% 1013 Norte/0 km/h OK
24/05 - 03:56   Céu Limpo 17° 82% 1014 Norte/0 km/h OK
24/05 - 02:56   Céu Limpo 17° 82% 1014 Leste/3 km/h OK
24/05 - 01:56   Céu Limpo 18° 82% 1014 Este-sudeste/3 km/h OK
24/05 - 00:56   Céu Limpo 18° 77% 1015 Leste/5 km/h OK
23/05 - 23:56   Céu Limpo 18° 82% 1015 Leste/5 km/h OK
23/05 - 22:56   Céu Limpo 18° 82% 1015 Norte/0 km/h OK
23/05 - 21:56   Céu Limpo 20° 73% 1015 Norte/0 km/h OK
23/05 - 20:56   Céu Limpo 22° 64% 1015 Norte/0 km/h OK
23/05 - 19:56   Céu Limpo 22° 64% 1014 Nordeste/3 km/h OK
23/05 - 18:56   Céu Limpo 26° 41% 1014 Norte-noroeste/5 km/h OK
23/05 - 17:56   Céu Limpo 28° 34% 1014 Oeste-noroeste/10 km/h OK
23/05 - 16:56   Céu Limpo 29° 30% 1013 Oeste-noroeste/12 km/h OK
23/05 - 15:56   Céu Limpo 30° 27% 1013 Oeste-noroeste/18 km/h OK
23/05 - 14:56   Céu Limpo 29° 30% 1014 Noroeste/14 km/h CAVO
23/05 - 13:56   Céu Limpo 29° 32% 1015 Noroeste/14 km/h CAVO
23/05 - 12:56   Céu Limpo 28° 39% 1016 Norte-noroeste/3 km/h OK
23/05 - 11:56   Céu Limpo 24° 53% 1017 /3 km/h OK
23/05 - 10:56   Céu Limpo 21° 64% 1018 /7 km/h OK
23/05 - 09:56   Céu Limpo 17° 77% 1018 Este-sudeste/9 km/h OK
23/05 - 08:56   Céu Limpo 14° 87% 1017 Leste/5 km/h OK


Apolo11.com - Todos os direitos reservados - 2000 - 2019
Política de Privacidade   |     Termo de Uso e Licenciamento   |  -   Entre em Contato

"Política é a guerra sem sangue enquanto a guerra é a política com sangue" - Mao Tsé-Tung